Airport View

Enter AWOS ICAO identifier for current METAR.

ex. KFNL

PAYA 212353Z AUTO 14006KT 10SM FEW015 BKN031 OVC065 13/10 A2944 RMK AO2 RAB18E28 SLP968 P0000 60005 T01330100 10139 20117 53006 TSNO

22 Sep 2019 00:05

Frequency: 135.75

Phone: 907-784-3564

Other Area AWOS: CWHT

TAF PAYA 212321Z 2200/2224 15008KT P6SM -SHRA SCT025 OVC060 TEMPO 2200/2204 5SM -SHRA BR BKN025 FM221200 10005KT P6SM VCSH SCT025 OVC040 AMD LTD TO CLD VIS AND WIND